createdAt,value
2023-11-13T00:00:48.390Z,19.58
2023-11-13T00:05:00.885Z,18.52
2023-11-13T00:09:13.370Z,19.65
2023-11-13T00:13:25.972Z,14.23
2023-11-13T00:17:38.463Z,13.73
2023-11-13T00:21:51.028Z,11.82
2023-11-13T00:26:03.479Z,15.43
2023-11-13T00:30:17.835Z,10.05
2023-11-13T00:34:30.344Z,12.63
2023-11-13T00:38:42.692Z,8.65
2023-11-13T00:42:55.247Z,9.18
2023-11-13T00:47:07.812Z,11.15
2023-11-13T00:51:20.162Z,9.48
2023-11-13T00:55:32.593Z,8.10
2023-11-13T00:59:45.109Z,7.43
2023-11-13T01:03:57.647Z,6.63
2023-11-13T01:08:11.168Z,6.50
2023-11-13T01:12:24.174Z,7.13
2023-11-13T01:16:36.699Z,5.93
2023-11-13T01:20:49.399Z,7.72
2023-11-13T01:25:02.437Z,7.72
2023-11-13T01:29:15.740Z,4.90
2023-11-13T01:33:28.208Z,6.70
2023-11-13T01:37:40.742Z,6.90
2023-11-13T01:41:53.138Z,5.82
2023-11-13T01:46:12.295Z,5.47
2023-11-13T01:50:24.830Z,9.00
2023-11-13T01:54:38.484Z,6.53
2023-11-13T01:58:50.977Z,7.95
2023-11-13T02:03:06.767Z,6.80
2023-11-13T02:07:19.441Z,10.32
2023-11-13T02:11:32.096Z,17.35
2023-11-13T02:15:44.609Z,17.05
2023-11-13T02:19:57.173Z,21.05
2023-11-13T02:24:11.338Z,97.43
2023-11-13T02:28:24.382Z,41.03
2023-11-13T02:32:36.863Z,69.95
2023-11-13T02:36:51.784Z,265.17
2023-11-13T02:41:04.565Z,111.43
2023-11-13T02:45:17.066Z,176.98
2023-11-13T02:49:29.457Z,132.13
2023-11-13T02:53:41.895Z,129.48
2023-11-13T02:57:54.367Z,112.22
2023-11-13T03:02:06.759Z,174.50
2023-11-13T03:06:23.558Z,104.35
2023-11-13T03:10:35.957Z,408.95
2023-11-13T03:14:48.448Z,172.15
2023-11-13T03:19:00.814Z,116.45
2023-11-13T03:23:13.916Z,68.72
2023-11-13T03:27:26.327Z,61.15
2023-11-13T03:31:38.855Z,54.15
2023-11-13T03:35:51.323Z,51.28
2023-11-13T03:40:04.044Z,59.92
2023-11-13T03:44:18.128Z,44.47
2023-11-13T03:48:30.517Z,44.67
2023-11-13T03:52:42.947Z,45.47
2023-11-13T03:56:55.381Z,39.55
2023-11-13T04:01:09.967Z,41.72
2023-11-13T04:05:22.444Z,46.28
2023-11-13T04:09:36.983Z,38.63
2023-11-13T04:13:49.433Z,52.05
2023-11-13T04:18:01.925Z,40.53
2023-11-13T04:22:14.422Z,49.90
2023-11-13T04:26:27.670Z,41.00
2023-11-13T04:30:40.048Z,61.92
2023-11-13T04:34:52.921Z,63.50
2023-11-13T04:39:10.824Z,61.90
2023-11-13T04:43:23.366Z,40.80
2023-11-13T04:47:35.768Z,31.98
2023-11-13T04:51:48.173Z,46.28
2023-11-13T04:56:00.758Z,40.97
2023-11-13T05:00:13.983Z,42.65
2023-11-13T05:04:28.121Z,38.80
2023-11-13T05:08:40.552Z,48.38
2023-11-13T05:12:53.206Z,53.40
2023-11-13T05:17:05.641Z,44.15
2023-11-13T05:21:18.376Z,51.47
2023-11-13T05:25:30.717Z,49.08
2023-11-13T05:29:43.166Z,44.55
2023-11-13T05:33:55.863Z,42.22
2023-11-13T05:38:08.187Z,40.42
2023-11-13T05:42:24.607Z,59.08
2023-11-13T05:46:37.078Z,54.92
2023-11-13T05:50:50.078Z,70.55
2023-11-13T05:55:02.696Z,78.07
2023-11-13T05:59:16.322Z,78.68
2023-11-13T06:03:28.723Z,76.03
2023-11-13T06:07:41.353Z,82.82
2023-11-13T06:11:54.343Z,66.35
2023-11-13T06:16:07.823Z,66.55
2023-11-13T06:20:20.630Z,63.42
2023-11-13T06:24:32.987Z,62.85
2023-11-13T06:28:45.457Z,57.80
2023-11-13T06:32:58.068Z,50.45
2023-11-13T06:37:10.585Z,50.13
2023-11-13T06:41:23.133Z,54.03
2023-11-13T06:45:37.111Z,53.13
2023-11-13T06:49:49.489Z,63.33
2023-11-13T06:54:02.108Z,53.88
2023-11-13T06:58:14.448Z,54.03
2023-11-13T07:02:29.382Z,59.63
2023-11-13T07:06:43.072Z,57.25
2023-11-13T07:10:55.699Z,55.30
2023-11-13T07:15:08.573Z,54.60
2023-11-13T07:19:21.607Z,50.00
2023-11-13T07:23:33.956Z,43.42
2023-11-13T07:27:46.891Z,38.47
2023-11-13T07:31:59.454Z,31.45
2023-11-13T07:36:12.692Z,27.80
2023-11-13T07:40:27.265Z,25.90
2023-11-13T07:44:47.191Z,24.48
2023-11-13T07:53:11.881Z,19.00
2023-11-13T07:57:24.757Z,10.88
2023-11-13T08:01:39.447Z,13.27
2023-11-13T08:05:52.258Z,12.68
2023-11-13T08:10:10.146Z,13.50
2023-11-13T08:14:24.573Z,16.23
2023-11-13T08:18:37.027Z,17.20
2023-11-13T08:22:49.791Z,21.58
2023-11-13T08:27:05.313Z,13.45
2023-11-13T08:31:18.126Z,14.52
2023-11-13T08:35:35.505Z,14.38
2023-11-13T08:39:49.441Z,12.35
2023-11-13T08:44:02.500Z,16.00
2023-11-13T08:48:15.337Z,12.68
2023-11-13T08:52:27.970Z,10.40
2023-11-13T08:56:42.658Z,13.98
2023-11-13T09:00:55.142Z,13.52
2023-11-13T09:05:08.284Z,16.45
2023-11-13T09:09:22.922Z,10.73
2023-11-13T09:13:35.587Z,8.30
2023-11-13T09:17:49.914Z,9.00
2023-11-13T09:22:06.420Z,9.40
2023-11-13T09:26:19.463Z,8.93
2023-11-13T09:30:33.706Z,9.93
2023-11-13T09:34:49.224Z,7.65
2023-11-13T09:39:05.113Z,13.77
2023-11-13T09:43:26.269Z,9.18
2023-11-13T09:47:44.316Z,7.68
2023-11-13T09:52:00.641Z,6.40
2023-11-13T09:56:16.599Z,10.93
2023-11-13T10:00:33.784Z,12.07
2023-11-13T10:04:46.870Z,11.68
2023-11-13T10:08:59.370Z,7.28
2023-11-13T10:13:14.095Z,7.78
2023-11-13T10:17:26.910Z,11.45
2023-11-13T10:21:39.357Z,8.82
2023-11-13T10:25:57.923Z,9.82
2023-11-13T10:30:11.689Z,8.95
2023-11-13T10:34:24.929Z,7.45
2023-11-13T10:38:52.937Z,10.10
2023-11-13T10:43:09.050Z,8.25
2023-11-13T10:47:24.996Z,5.05
2023-11-13T10:51:38.049Z,5.68
2023-11-13T10:55:52.098Z,8.07
2023-11-13T11:00:06.940Z,5.80
2023-11-13T11:04:23.388Z,4.97
2023-11-13T11:08:37.004Z,5.05
2023-11-13T11:13:07.331Z,7.68
2023-11-13T11:17:34.827Z,6.35
2023-11-13T11:22:06.482Z,7.43
2023-11-13T11:26:21.465Z,10.77
2023-11-13T11:30:37.013Z,4.75
2023-11-13T11:35:04.240Z,9.40
2023-11-13T11:39:23.465Z,6.68
2023-11-13T11:43:40.130Z,6.78
2023-11-13T11:47:56.295Z,9.32
2023-11-13T11:52:10.490Z,6.93
2023-11-13T11:56:24.992Z,7.90
2023-11-13T12:00:37.387Z,8.25
2023-11-13T12:04:49.789Z,4.65
2023-11-13T12:09:05.887Z,6.22
2023-11-13T12:13:20.834Z,3.55
2023-11-13T12:17:38.759Z,3.42
2023-11-13T12:21:51.566Z,5.05
2023-11-13T12:26:06.391Z,3.83
2023-11-13T12:30:20.958Z,6.63
2023-11-13T12:34:33.494Z,8.63
2023-11-13T12:38:48.596Z,6.03
2023-11-13T12:43:04.178Z,4.25
2023-11-13T12:47:18.466Z,4.95
2023-11-13T12:51:36.298Z,7.75
2023-11-13T12:55:52.427Z,4.38
2023-11-13T13:00:06.578Z,6.97
2023-11-13T13:04:21.956Z,9.35
2023-11-13T13:08:34.875Z,3.55
2023-11-13T13:12:50.200Z,5.97
2023-11-13T13:17:08.632Z,5.25
2023-11-13T13:21:23.484Z,5.28
2023-11-13T13:25:37.704Z,4.43
2023-11-13T13:29:51.126Z,3.83
2023-11-13T13:34:03.892Z,4.25
2023-11-13T13:38:17.796Z,5.70
2023-11-13T13:42:30.484Z,6.00
2023-11-13T13:46:43.851Z,4.68
2023-11-13T13:50:58.545Z,9.25
2023-11-13T13:55:14.367Z,7.03
2023-11-13T13:59:26.814Z,4.47
2023-11-13T14:03:42.003Z,4.97
2023-11-13T14:07:56.069Z,4.88
2023-11-13T14:12:15.236Z,6.18
2023-11-13T14:16:32.155Z,8.50
2023-11-13T14:20:48.742Z,7.78
2023-11-13T14:25:01.901Z,7.30
2023-11-13T14:29:18.152Z,7.82
2023-11-13T14:33:30.715Z,5.32
2023-11-13T14:37:43.461Z,7.97
2023-11-13T14:41:56.511Z,7.63
2023-11-13T14:46:09.413Z,12.35
2023-11-13T14:50:24.697Z,7.72
2023-11-13T14:54:37.966Z,5.60
2023-11-13T14:58:50.471Z,6.60
2023-11-13T15:03:03.932Z,7.95
2023-11-13T15:07:19.819Z,11.65
2023-11-13T15:11:32.471Z,7.20
2023-11-13T15:15:45.319Z,8.68
2023-11-13T15:19:57.845Z,8.13
2023-11-13T15:24:10.769Z,11.32
2023-11-13T15:28:24.128Z,9.35
2023-11-13T15:32:37.328Z,10.40
2023-11-13T15:36:49.859Z,9.60
2023-11-13T15:41:02.450Z,8.20
2023-11-13T15:45:15.024Z,12.77
2023-11-13T15:49:28.885Z,17.40
2023-11-13T15:53:42.032Z,8.60
2023-11-13T15:57:54.427Z,10.32
2023-11-13T16:02:07.417Z,7.85
2023-11-13T16:06:19.828Z,10.20
2023-11-13T16:10:32.311Z,13.48
2023-11-13T16:14:45.774Z,14.90
2023-11-13T16:18:58.183Z,14.85
2023-11-13T16:23:10.613Z,25.58
2023-11-13T16:27:24.101Z,14.45
2023-11-13T16:31:37.144Z,23.30
2023-11-13T16:35:49.658Z,22.17
2023-11-13T16:40:03.922Z,21.38
2023-11-13T16:44:16.636Z,29.25
2023-11-13T16:48:29.206Z,26.83
2023-11-13T16:52:42.133Z,29.30
2023-11-13T16:56:54.748Z,39.05
2023-11-13T17:01:08.531Z,29.38
2023-11-13T17:05:24.301Z,34.30
2023-11-13T17:09:36.837Z,26.13
2023-11-13T17:13:51.490Z,24.90
2023-11-13T17:18:06.397Z,21.35
2023-11-13T17:22:18.842Z,22.55
2023-11-13T17:26:31.219Z,20.13
2023-11-13T17:30:44.548Z,21.13
2023-11-13T17:34:57.123Z,30.20
2023-11-13T17:39:10.830Z,18.63
2023-11-13T17:43:23.294Z,24.58
2023-11-13T17:47:35.928Z,20.45
2023-11-13T17:51:49.306Z,18.10
2023-11-13T17:56:01.761Z,16.63
2023-11-13T18:00:16.095Z,17.83
2023-11-13T18:04:28.911Z,15.68
2023-11-13T18:08:41.405Z,12.70
2023-11-13T18:12:56.427Z,13.45
2023-11-13T18:17:08.936Z,15.73
2023-11-13T18:21:21.365Z,12.35
2023-11-13T18:25:34.578Z,12.98
2023-11-13T18:29:46.961Z,15.43
2023-11-13T18:33:59.906Z,11.13
2023-11-13T18:38:12.362Z,15.63
2023-11-13T18:42:25.464Z,12.20
2023-11-13T18:46:41.228Z,15.55
2023-11-13T18:50:53.782Z,17.50
2023-11-13T18:55:08.307Z,15.73
2023-11-13T18:59:21.296Z,14.35
2023-11-13T19:03:33.838Z,10.82
2023-11-13T19:07:46.386Z,9.15
2023-11-13T19:11:59.049Z,8.88
2023-11-13T19:16:11.559Z,10.02
2023-11-13T19:20:27.559Z,17.25
2023-11-13T19:24:40.492Z,11.80
2023-11-13T19:28:53.116Z,12.98
2023-11-13T19:33:08.994Z,13.38
2023-11-13T19:37:21.472Z,14.77
2023-11-13T19:41:34.119Z,17.33
2023-11-13T19:45:47.616Z,18.15
2023-11-13T19:50:00.945Z,18.33
2023-11-13T19:54:13.471Z,17.23
2023-11-13T19:58:25.825Z,11.20
2023-11-13T20:02:41.341Z,13.15
2023-11-13T20:06:53.878Z,17.33
2023-11-13T20:11:08.000Z,12.10
2023-11-13T20:15:20.708Z,12.45
2023-11-13T20:19:33.921Z,12.38
2023-11-13T20:23:46.375Z,15.00
2023-11-13T20:27:58.860Z,18.27
2023-11-13T20:32:11.261Z,14.25
2023-11-13T20:36:23.820Z,15.65
2023-11-13T20:40:37.666Z,12.25
2023-11-13T20:44:50.102Z,9.43
2023-11-13T20:49:02.675Z,16.70
2023-11-13T20:53:16.185Z,10.80
2023-11-13T20:57:31.840Z,10.95
2023-11-13T21:01:44.411Z,13.48
2023-11-13T21:06:06.712Z,10.57
2023-11-13T21:10:22.003Z,12.93
2023-11-13T21:14:35.003Z,12.70
2023-11-13T21:18:47.468Z,14.93
2023-11-13T21:22:59.940Z,10.95
2023-11-13T21:27:12.400Z,8.77
2023-11-13T21:31:24.866Z,9.23
2023-11-13T21:35:37.320Z,13.60
2023-11-13T21:39:50.582Z,11.10
2023-11-13T21:44:03.128Z,9.02
2023-11-13T21:48:15.538Z,14.85
2023-11-13T21:52:28.000Z,9.23
2023-11-13T21:56:40.620Z,9.07
2023-11-13T22:00:53.016Z,8.23
2023-11-13T22:05:08.753Z,9.70
2023-11-13T22:09:22.424Z,10.38
2023-11-13T22:13:37.431Z,7.63
2023-11-13T22:17:50.760Z,9.40
2023-11-13T22:22:03.166Z,8.73
2023-11-13T22:26:15.677Z,10.10
2023-11-13T22:30:28.239Z,10.57
2023-11-13T22:34:40.863Z,7.45
2023-11-13T22:38:53.297Z,10.10
2023-11-13T22:43:06.980Z,12.07
2023-11-13T22:47:20.400Z,12.18
2023-11-13T22:51:33.025Z,8.18
2023-11-13T22:55:45.588Z,9.18
2023-11-13T22:59:58.119Z,8.05
2023-11-13T23:04:10.500Z,10.65
2023-11-13T23:08:23.435Z,7.03
2023-11-13T23:12:37.211Z,6.07
2023-11-13T23:16:49.620Z,6.68
2023-11-13T23:21:05.087Z,6.00
2023-11-13T23:25:19.826Z,7.82
2023-11-13T23:29:33.078Z,8.88
2023-11-13T23:33:45.919Z,6.82
2023-11-13T23:37:58.471Z,7.38
2023-11-13T23:42:11.619Z,8.00
2023-11-13T23:46:24.220Z,5.18
2023-11-13T23:50:36.758Z,6.55
2023-11-13T23:54:49.094Z,4.75
2023-11-13T23:59:01.547Z,7.72
